Meckling, South Dakota
Current Conditions -  °F | °C
As of 7:15 AM on Thursday 23 Oct 2014 (Local Time) from KYKN Reporting Station
Broken Clouds Broken Clouds  
Wind Chill: 39°   Ceiling: 200
Heat Index: 39°   Visibility: 0.5mi
Dew Point: 39°   Wind: 0mph
Humidity: 100%   Direction: NA
Pressure: 30.03"   Gusts: NA
Location:  42.84°N, 97.07°W
Report Text: KYKN 231215Z AUTO 00000KT 1/2SM BKN002 04/04 A3003 RMK AO1
Loading
Personal Weather Stations






























Interactive Weather Map
Tropical Storm Tracking
New forecast layout! Learn more

10-Day Weather Forecast

Advertisements
Track Severe Weather on mobile